Time;durP1;ratioP1;P1;durP2;ratioP2;P2;SDS_P1;SDS_P2;PMS_P1;PMS_P2;Temp;Humidity;BMP_temperature;BMP_pressure;BME280_temperature;BME280_humidity;BME280_pressure;Samples;Min_cycle;Max_cycle;Signal;HPM_P1;HPM_P2
2022/09/20 00:00:39;;;;;;;10.98;1.52;;;;;;;;;;5070510;28;20486;-72
2022/09/20 00:03:05;;;;;;;6.75;1.15;;;;;;;;;;5054696;28;20567;-72
2022/09/20 00:05:35;;;;;;;11.07;1.83;;;;;;;;;;5055064;28;20511;-73
2022/09/20 00:08:01;;;;;;;8.68;1.20;;;;;;;;;;5037176;28;20508;-73
2022/09/20 00:10:29;;;;;;;9.57;1.25;;;;;;;;;;5054718;28;20051;-73
2022/09/20 00:12:56;;;;;;;7.57;1.60;;;;;;;;;;5040066;28;20045;-73
2022/09/20 00:15:22;;;;;;;8.32;1.13;;;;;;;;;;5054492;28;20115;-74
2022/09/20 00:17:48;;;;;;;8.10;1.40;;;;;;;;;;5058967;28;20513;-73
2022/09/20 00:20:14;;;;;;;8.45;1.20;;;;;;;;;;5064136;28;20041;-74
2022/09/20 00:22:40;;;;;;;8.02;1.52;;;;;;;;;;5054580;28;20033;-73
2022/09/20 00:25:07;;;;;;;7.15;1.00;;;;;;;;;;5053184;28;20049;-73
2022/09/20 00:27:33;;;;;;;10.02;1.20;;;;;;;;;;5054795;28;20052;-73
2022/09/20 00:29:59;;;;;;;6.85;1.45;;;;;;;;;;5054497;28;20049;-73
2022/09/20 00:32:25;;;;;;;6.63;1.08;;;;;;;;;;5069802;28;20500;-73
2022/09/20 00:35:06;;;;;;;5.72;1.20;;;;;;;;;;5069924;28;20567;-73
2022/09/20 00:37:33;;;;;;;10.10;1.20;;;;;;;;;;5054029;28;20048;-73
2022/09/20 00:39:59;;;;;;;4.88;0.88;;;;;;;;;;5052530;28;20045;-73
2022/09/20 00:42:30;;;;;;;6.60;1.00;;;;;;;;;;5061167;28;20037;-68
2022/09/20 00:45:06;;;;;;;8.10;1.00;;;;;;;;;;5072186;28;20542;-68
2022/09/20 00:47:44;;;;;;;3.95;0.85;;;;;;;;;;5047271;28;20036;-68
2022/09/20 00:50:22;;;;;;;6.53;1.02;;;;;;;;;;5073004;28;20045;-68
2022/09/20 00:52:50;;;;;;;6.80;0.88;;;;;;;;;;5065281;28;20580;-73
2022/09/20 00:55:16;;;;;;;8.95;0.80;;;;;;;;;;5053596;28;20041;-73
2022/09/20 00:57:43;;;;;;;5.65;0.90;;;;;;;;;;5053923;28;20514;-73
2022/09/20 01:00:11;;;;;;;7.78;0.90;;;;;;;;;;5053732;28;20402;-73
2022/09/20 01:02:40;;;;;;;9.57;1.23;;;;;;;;;;5052255;28;20057;-73
2022/09/20 01:05:07;;;;;;;3.83;0.90;;;;;;;;;;5053938;28;20076;-73
2022/09/20 01:07:33;;;;;;;5.70;0.88;;;;;;;;;;5052540;28;20049;-73
2022/09/20 01:09:59;;;;;;;4.10;0.90;;;;;;;;;;5053763;28;20044;-73
2022/09/20 01:12:26;;;;;;;8.30;1.02;;;;;;;;;;5052417;28;20032;-73
2022/09/20 01:14:53;;;;;;;4.65;1.08;;;;;;;;;;5034640;28;20116;-68
2022/09/20 01:17:22;;;;;;;6.03;1.05;;;;;;;;;;5052146;28;20045;-68
2022/09/20 01:19:51;;;;;;;6.72;0.80;;;;;;;;;;5052468;28;20090;-68
2022/09/20 01:22:22;;;;;;;5.85;0.80;;;;;;;;;;5051405;28;20120;-68
2022/09/20 01:24:56;;;;;;;8.55;0.95;;;;;;;;;;5051350;28;20509;-68
2022/09/20 01:27:26;;;;;;;8.93;1.00;;;;;;;;;;5051446;28;20041;-68
2022/09/20 01:30:01;;;;;;;5.88;1.23;;;;;;;;;;5051075;28;20183;-68
2022/09/20 01:32:32;;;;;;;7.82;1.10;;;;;;;;;;5052467;28;20044;-69
2022/09/20 01:34:59;;;;;;;7.15;1.58;;;;;;;;;;5052369;28;20041;-68
2022/09/20 01:37:27;;;;;;;4.63;1.00;;;;;;;;;;5050769;28;20497;-68
2022/09/20 01:40:13;;;;;;;5.80;1.00;;;;;;;;;;5051154;28;20044;-68
2022/09/20 01:42:45;;;;;;;5.90;1.10;;;;;;;;;;5051056;28;20066;-68
2022/09/20 01:45:14;;;;;;;4.93;1.05;;;;;;;;;;5051145;28;20065;-68
2022/09/20 01:47:40;;;;;;;5.35;1.05;;;;;;;;;;5051645;28;20047;-68
2022/09/20 01:50:18;;;;;;;6.10;0.93;;;;;;;;;;5052186;28;20413;-68
2022/09/20 01:52:57;;;;;;;9.15;1.77;;;;;;;;;;5050220;28;20159;-68
2022/09/20 01:55:42;;;;;;;4.22;0.90;;;;;;;;;;5051625;28;20033;-67
2022/09/20 01:58:14;;;;;;;6.38;0.98;;;;;;;;;;5033945;28;20081;-68
2022/09/20 02:00:55;;;;;;;6.40;0.98;;;;;;;;;;5051589;28;20033;-69
2022/09/20 02:03:27;;;;;;;7.88;1.15;;;;;;;;;;5041396;28;20053;-68
2022/09/20 02:06:22;;;;;;;6.38;1.10;;;;;;;;;;5057702;28;20044;-68
2022/09/20 02:08:51;;;;;;;7.53;1.30;;;;;;;;;;5044193;28;20099;-68
2022/09/20 02:11:21;;;;;;;6.90;0.90;;;;;;;;;;5055738;28;20037;-68
2022/09/20 02:13:50;;;;;;;6.00;0.80;;;;;;;;;;5050608;28;20071;-68
2022/09/20 02:16:28;;;;;;;7.32;1.00;;;;;;;;;;5051648;28;20049;-68
2022/09/20 02:18:55;;;;;;;6.20;1.02;;;;;;;;;;5051391;28;20044;-68
2022/09/20 02:21:37;;;;;;;7.53;1.05;;;;;;;;;;5051647;28;20040;-68
2022/09/20 02:24:03;;;;;;;10.20;1.08;;;;;;;;;;5052110;28;20044;-68
2022/09/20 02:26:35;;;;;;;8.20;1.17;;;;;;;;;;5052106;28;20489;-73
2022/09/20 02:29:20;;;;;;;7.95;1.30;;;;;;;;;;5052798;28;20045;-73
2022/09/20 02:32:06;;;;;;;6.75;1.30;;;;;;;;;;5039461;28;20033;-73
2022/09/20 02:34:35;;;;;;;4.72;0.90;;;;;;;;;;5044814;28;20536;-73
2022/09/20 02:37:04;;;;;;;8.25;1.30;;;;;;;;;;5051610;28;20489;-73
2022/09/20 02:39:35;;;;;;;6.38;1.30;;;;;;;;;;5062500;28;20044;-73
2022/09/20 02:42:12;;;;;;;7.53;1.25;;;;;;;;;;5052609;28;20546;-73
2022/09/20 02:44:48;;;;;;;12.88;1.52;;;;;;;;;;5056513;28;20088;-73
2022/09/20 02:47:22;;;;;;;5.15;1.10;;;;;;;;;;5046343;28;20080;-73
2022/09/20 02:50:00;;;;;;;5.25;1.30;;;;;;;;;;5052542;28;20084;-73
2022/09/20 02:52:26;;;;;;;7.82;1.20;;;;;;;;;;5052589;28;20068;-73
2022/09/20 02:55:08;;;;;;;4.32;1.25;;;;;;;;;;5052289;28;20509;-72
2022/09/20 02:57:40;;;;;;;6.07;1.00;;;;;;;;;;5051933;28;20052;-73
2022/09/20 03:00:09;;;;;;;8.75;1.48;;;;;;;;;;5051439;28;20041;-72
2022/09/20 03:02:54;;;;;;;5.63;1.05;;;;;;;;;;5051126;28;20132;-72
2022/09/20 03:05:20;;;;;;;6.97;1.27;;;;;;;;;;5056008;28;20041;-73
2022/09/20 03:08:09;;;;;;;5.72;1.10;;;;;;;;;;5054541;28;20045;-73
2022/09/20 03:10:54;;;;;;;6.80;1.02;;;;;;;;;;5055793;28;20041;-73
2022/09/20 03:13:29;;;;;;;6.78;1.10;;;;;;;;;;5055943;28;20394;-73
2022/09/20 03:16:01;;;;;;;4.30;1.10;;;;;;;;;;5056124;28;20120;-73
2022/09/20 03:18:41;;;;;;;5.90;1.15;;;;;;;;;;5055943;28;20306;-73
2022/09/20 03:21:07;;;;;;;5.40;1.15;;;;;;;;;;5055439;28;20041;-68
2022/09/20 03:23:53;;;;;;;6.13;1.10;;;;;;;;;;5054976;28;20117;-72
2022/09/20 03:26:29;;;;;;;4.15;0.80;;;;;;;;;;5054275;28;20041;-73
2022/09/20 03:29:07;;;;;;;3.10;1.00;;;;;;;;;;5055832;28;20215;-68
2022/09/20 03:31:54;;;;;;;3.38;0.93;;;;;;;;;;5054427;28;20048;-68
2022/09/20 03:34:23;;;;;;;5.32;0.90;;;;;;;;;;5055486;28;20044;-68
2022/09/20 03:37:02;;;;;;;4.53;0.82;;;;;;;;;;5053966;28;20049;-68
2022/09/20 03:39:57;;;;;;;4.18;0.75;;;;;;;;;;5054535;28;20087;-68
2022/09/20 03:42:28;;;;;;;4.40;0.80;;;;;;;;;;5053591;28;20045;-68
2022/09/20 03:45:04;;;;;;;2.35;0.68;;;;;;;;;;5036204;28;20119;-69
2022/09/20 03:47:49;;;;;;;3.45;0.70;;;;;;;;;;5054311;28;20607;-68
2022/09/20 03:50:15;;;;;;;6.28;0.90;;;;;;;;;;5054122;28;20063;-68
2022/09/20 03:52:53;;;;;;;5.53;0.95;;;;;;;;;;5053942;28;20505;-68
2022/09/20 03:55:19;;;;;;;9.93;1.08;;;;;;;;;;5053176;28;20037;-68
2022/09/20 03:58:04;;;;;;;7.00;0.90;;;;;;;;;;5053297;28;20394;-68
2022/09/20 04:00:49;;;;;;;5.30;0.90;;;;;;;;;;5036115;28;20040;-68
2022/09/20 04:03:35;;;;;;;3.97;1.20;;;;;;;;;;5059259;28;20478;-67
2022/09/20 04:06:09;;;;;;;8.02;0.80;;;;;;;;;;5055726;28;20095;-68
2022/09/20 04:08:54;;;;;;;4.72;1.02;;;;;;;;;;5051911;28;20546;-68
2022/09/20 04:11:43;;;;;;;3.17;0.63;;;;;;;;;;5044424;28;20064;-68
2022/09/20 04:14:18;;;;;;;6.25;1.17;;;;;;;;;;5045594;28;20057;-68
2022/09/20 04:16:50;;;;;;;4.32;0.93;;;;;;;;;;5053215;28;20041;-68
2022/09/20 04:19:19;;;;;;;4.82;0.90;;;;;;;;;;5069025;28;20049;-69
2022/09/20 04:21:51;;;;;;;6.78;0.93;;;;;;;;;;5053343;28;20394;-69
2022/09/20 04:24:26;;;;;;;6.63;0.80;;;;;;;;;;5053763;28;20099;-68
2022/09/20 04:27:00;;;;;;;1.70;0.50;;;;;;;;;;5053263;28;20120;-68
2022/09/20 04:29:36;;;;;;;6.32;1.00;;;;;;;;;;5053167;28;20041;-68
2022/09/20 04:32:20;;;;;;;7.05;1.00;;;;;;;;;;5053715;28;20454;-68
2022/09/20 04:37:50;;;;;;;4.43;0.88;;;;;;;;;;5052622;28;20045;-68
2022/09/20 04:40:34;;;;;;;5.30;0.90;;;;;;;;;;5053257;28;20045;-68
2022/09/20 04:43:23;;;;;;;4.63;1.08;;;;;;;;;;5052930;28;20041;-68
2022/09/20 04:46:05;;;;;;;6.55;1.00;;;;;;;;;;5068362;28;20056;-68
2022/09/20 04:48:41;;;;;;;6.38;1.00;;;;;;;;;;5051582;28;20045;-68
2022/09/20 04:51:21;;;;;;;5.97;1.00;;;;;;;;;;5051761;28;20041;-69
2022/09/20 04:54:02;;;;;;;6.47;1.20;;;;;;;;;;5052883;28;20044;-68
2022/09/20 04:56:34;;;;;;;4.45;1.10;;;;;;;;;;5053146;28;20090;-68
2022/09/20 04:59:09;;;;;;;6.07;1.33;;;;;;;;;;5056271;28;20118;-68
2022/09/20 05:01:54;;;;;;;7.72;1.73;;;;;;;;;;5052946;28;20041;-73
2022/09/20 05:04:30;;;;;;;3.40;1.05;;;;;;;;;;5053495;28;20049;-73
2022/09/20 05:07:15;;;;;;;2.72;1.10;;;;;;;;;;5052904;28;20061;-73
2022/09/20 05:10:08;;;;;;;7.55;1.40;;;;;;;;;;5052259;28;20052;-73
2022/09/20 05:12:40;;;;;;;3.40;1.13;;;;;;;;;;5020819;28;20126;-73
2022/09/20 05:15:09;;;;;;;4.00;1.52;;;;;;;;;;5053481;28;20037;-73
2022/09/20 05:17:54;;;;;;;4.20;1.20;;;;;;;;;;5053502;28;20367;-73
2022/09/20 05:20:23;;;;;;;6.05;1.50;;;;;;;;;;5053459;28;20055;-73
2022/09/20 05:23:14;;;;;;;3.72;1.15;;;;;;;;;;5052072;28;20119;-73
2022/09/20 05:25:59;;;;;;;7.05;1.42;;;;;;;;;;5053764;28;20065;-73
2022/09/20 05:28:31;;;;;;;7.50;1.70;;;;;;;;;;5051371;28;20045;-73
2022/09/20 05:30:59;;;;;;;5.85;1.30;;;;;;;;;;5053187;28;20194;-74
2022/09/20 05:33:43;;;;;;;3.60;1.50;;;;;;;;;;5038367;28;20041;-74
2022/09/20 05:36:09;;;;;;;7.05;1.55;;;;;;;;;;5052300;28;20497;-73
2022/09/20 05:38:39;;;;;;;7.82;1.55;;;;;;;;;;5053384;28;20040;-73
2022/09/20 05:41:13;;;;;;;8.68;1.55;;;;;;;;;;5051981;28;20075;-73
2022/09/20 05:43:46;;;;;;;6.13;1.80;;;;;;;;;;5055357;28;20520;-73
2022/09/20 05:46:13;;;;;;;4.70;1.45;;;;;;;;;;5053278;28;20087;-73
2022/09/20 05:48:59;;;;;;;5.47;1.50;;;;;;;;;;5053162;28;20040;-73
2022/09/20 05:51:28;;;;;;;5.63;1.17;;;;;;;;;;5049165;28;20407;-73
2022/09/20 05:53:57;;;;;;;8.30;1.92;;;;;;;;;;5053273;28;20452;-73
2022/09/20 05:56:26;;;;;;;10.13;1.83;;;;;;;;;;5051928;28;20045;-73
2022/09/20 05:59:02;;;;;;;6.15;1.30;;;;;;;;;;5035248;28;20048;-73
2022/09/20 06:01:31;;;;;;;7.95;1.30;;;;;;;;;;5053156;28;20040;-73
2022/09/20 06:04:16;;;;;;;7.60;1.13;;;;;;;;;;5052670;28;20053;-73
2022/09/20 06:06:45;;;;;;;6.50;1.00;;;;;;;;;;5053073;28;20087;-73
2022/09/20 06:09:19;;;;;;;5.60;1.20;;;;;;;;;;5051788;28;20045;-73
2022/09/20 06:11:45;;;;;;;6.57;1.13;;;;;;;;;;5053238;28;20045;-73
2022/09/20 06:14:19;;;;;;;6.65;1.20;;;;;;;;;;5052843;28;20033;-73
2022/09/20 06:17:04;;;;;;;6.93;2.20;;;;;;;;;;5051480;28;20048;-73
2022/09/20 06:19:40;;;;;;;8.60;1.40;;;;;;;;;;5051386;28;20077;-73
2022/09/20 06:22:25;;;;;;;8.82;1.17;;;;;;;;;;5052773;28;20036;-73
2022/09/20 06:24:55;;;;;;;4.90;1.30;;;;;;;;;;5051376;28;20033;-73
2022/09/20 06:27:27;;;;;;;13.38;1.20;;;;;;;;;;5053166;28;20545;-74
2022/09/20 06:30:05;;;;;;;5.28;1.10;;;;;;;;;;5052705;28;20041;-74
2022/09/20 06:32:32;;;;;;;6.65;1.10;;;;;;;;;;5052944;28;20041;-74
2022/09/20 06:35:00;;;;;;;4.78;0.90;;;;;;;;;;5052602;28;20063;-73
2022/09/20 06:43:35;;;;;;;6.40;0.90;;;;;;;;;;5056567;28;20036;-73
2022/09/20 06:46:01;;;;;;;7.88;1.00;;;;;;;;;;5056591;28;20037;-74
2022/09/20 06:48:29;;;;;;;3.95;0.90;;;;;;;;;;5055293;28;20103;-73
2022/09/20 06:50:56;;;;;;;5.45;0.85;;;;;;;;;;5055161;28;20090;-73
2022/09/20 06:53:32;;;;;;;7.00;0.90;;;;;;;;;;5055272;28;20053;-73
2022/09/20 06:55:59;;;;;;;5.15;1.20;;;;;;;;;;5056421;28;20125;-73
2022/09/20 06:58:25;;;;;;;5.75;1.02;;;;;;;;;;5056864;28;20135;-73
2022/09/20 07:00:52;;;;;;;5.53;0.90;;;;;;;;;;5056575;28;20045;-73
2022/09/20 07:03:21;;;;;;;7.25;0.90;;;;;;;;;;5055003;28;20087;-73
2022/09/20 07:05:47;;;;;;;6.72;1.00;;;;;;;;;;5056339;28;20083;-73
2022/09/20 07:08:13;;;;;;;4.20;0.80;;;;;;;;;;5056262;28;20049;-73
2022/09/20 07:10:40;;;;;;;6.60;1.00;;;;;;;;;;5056582;28;20048;-74
2022/09/20 07:13:06;;;;;;;5.20;0.90;;;;;;;;;;5056052;28;20055;-74
2022/09/20 07:15:32;;;;;;;4.82;0.75;;;;;;;;;;5054859;28;20075;-74
2022/09/20 07:17:59;;;;;;;6.03;0.90;;;;;;;;;;5054614;28;20594;-74
2022/09/20 07:20:25;;;;;;;5.82;0.95;;;;;;;;;;5055862;28;20041;-69
2022/09/20 07:22:52;;;;;;;6.70;1.75;;;;;;;;;;5054967;28;20041;-69
2022/09/20 07:25:19;;;;;;;6.72;0.93;;;;;;;;;;5053335;28;20052;-69
2022/09/20 07:27:45;;;;;;;6.55;0.90;;;;;;;;;;5054817;28;20044;-69
2022/09/20 07:30:12;;;;;;;3.47;0.90;;;;;;;;;;5053953;28;20045;-69
2022/09/20 07:32:39;;;;;;;6.10;1.20;;;;;;;;;;5053542;28;20045;-70
2022/09/20 07:35:09;;;;;;;7.30;0.90;;;;;;;;;;5053928;28;20045;-70
2022/09/20 07:37:35;;;;;;;5.88;0.98;;;;;;;;;;5053533;28;20167;-69
2022/09/20 07:40:02;;;;;;;5.28;0.80;;;;;;;;;;5052613;28;20045;-69
2022/09/20 07:42:29;;;;;;;6.22;0.80;;;;;;;;;;5053205;28;20116;-69
2022/09/20 07:44:55;;;;;;;5.10;0.98;;;;;;;;;;5054364;28;20445;-69
2022/09/20 07:47:24;;;;;;;5.78;1.40;;;;;;;;;;5054455;28;20040;-69
2022/09/20 07:49:50;;;;;;;6.72;0.95;;;;;;;;;;5053299;28;20121;-69
2022/09/20 07:52:17;;;;;;;6.20;0.93;;;;;;;;;;5053918;28;20052;-69
2022/09/20 07:54:44;;;;;;;3.72;0.90;;;;;;;;;;5053608;28;20123;-69
2022/09/20 07:57:10;;;;;;;4.40;0.70;;;;;;;;;;5052549;28;20049;-70
2022/09/20 07:59:37;;;;;;;4.78;1.02;;;;;;;;;;5054137;28;20129;-69
2022/09/20 08:02:03;;;;;;;3.60;0.80;;;;;;;;;;5052147;28;20044;-70
2022/09/20 08:04:29;;;;;;;6.55;1.20;;;;;;;;;;5052915;28;20045;-70
2022/09/20 08:06:57;;;;;;;2.35;0.80;;;;;;;;;;5054187;28;20083;-69
2022/09/20 08:09:23;;;;;;;5.65;0.85;;;;;;;;;;5052406;28;20043;-69
2022/09/20 08:11:49;;;;;;;4.88;0.80;;;;;;;;;;5053690;28;20382;-69
2022/09/20 08:14:17;;;;;;;2.65;0.70;;;;;;;;;;5053483;28;20048;-69
2022/09/20 08:16:44;;;;;;;5.25;1.40;;;;;;;;;;5052555;28;20045;-70
2022/09/20 08:19:14;;;;;;;2.63;0.88;;;;;;;;;;5053376;28;20554;-70
2022/09/20 08:21:40;;;;;;;4.25;0.80;;;;;;;;;;5052444;28;20525;-70
2022/09/20 08:24:06;;;;;;;4.45;0.98;;;;;;;;;;5052349;28;20097;-69
2022/09/20 08:26:34;;;;;;;5.65;1.00;;;;;;;;;;5052272;28;20048;-70
2022/09/20 08:29:00;;;;;;;4.85;0.98;;;;;;;;;;5051575;28;20486;-69
2022/09/20 08:31:30;;;;;;;5.15;1.00;;;;;;;;;;5051636;28;20041;-69
2022/09/20 08:33:57;;;;;;;3.80;0.90;;;;;;;;;;5053862;28;20041;-69
2022/09/20 08:36:25;;;;;;;5.15;0.90;;;;;;;;;;5053115;28;20099;-69
2022/09/20 08:38:52;;;;;;;5.75;1.10;;;;;;;;;;5053462;28;20044;-69
2022/09/20 08:41:26;;;;;;;5.75;0.90;;;;;;;;;;5051456;28;20043;-69
2022/09/20 08:44:07;;;;;;;7.45;0.82;;;;;;;;;;5053784;28;20033;-69
2022/09/20 08:46:35;;;;;;;3.45;1.25;;;;;;;;;;5035557;28;20581;-70
2022/09/20 08:49:03;;;;;;;5.38;0.80;;;;;;;;;;5054172;28;20100;-75
2022/09/20 08:51:31;;;;;;;6.07;0.90;;;;;;;;;;5052779;28;20082;-76
2022/09/20 08:53:57;;;;;;;5.38;0.90;;;;;;;;;;5053463;28;20072;-71
2022/09/20 08:56:26;;;;;;;4.60;0.77;;;;;;;;;;5051760;28;20064;-72
2022/09/20 08:58:53;;;;;;;6.18;0.93;;;;;;;;;;5051741;28;20049;-71
2022/09/20 09:01:21;;;;;;;5.70;0.90;;;;;;;;;;5052260;28;20370;-69
2022/09/20 09:03:50;;;;;;;6.22;1.02;;;;;;;;;;5051131;28;20111;-69
2022/09/20 09:06:18;;;;;;;4.15;0.90;;;;;;;;;;5051448;28;20095;-69
2022/09/20 09:08:50;;;;;;;4.28;0.85;;;;;;;;;;5052008;28;20462;-69
2022/09/20 09:11:18;;;;;;;3.88;0.75;;;;;;;;;;5052609;28;20401;-69
2022/09/20 09:13:51;;;;;;;6.65;0.90;;;;;;;;;;5052115;28;20079;-75
2022/09/20 09:16:18;;;;;;;6.35;0.80;;;;;;;;;;5035491;28;20123;-75
2022/09/20 09:18:45;;;;;;;5.80;1.08;;;;;;;;;;5053540;28;20102;-76
2022/09/20 09:21:19;;;;;;;3.92;0.90;;;;;;;;;;5052127;28;20083;-75
2022/09/20 09:24:01;;;;;;;6.65;1.02;;;;;;;;;;5052076;28;20121;-76
2022/09/20 09:26:27;;;;;;;3.47;0.73;;;;;;;;;;5051489;28;20033;-70
2022/09/20 09:29:26;;;;;;;4.43;0.93;;;;;;;;;;5049710;28;20540;-70
2022/09/20 09:31:56;;;;;;;5.70;0.90;;;;;;;;;;5029063;28;20052;-69
2022/09/20 09:34:27;;;;;;;4.68;0.80;;;;;;;;;;5051193;28;20075;-70
2022/09/20 09:36:54;;;;;;;6.38;0.82;;;;;;;;;;5065558;28;20044;-70
2022/09/20 09:39:26;;;;;;;4.25;0.98;;;;;;;;;;5051001;28;20037;-69
2022/09/20 09:41:52;;;;;;;4.03;0.85;;;;;;;;;;5051941;28;20036;-69
2022/09/20 09:44:18;;;;;;;5.45;0.75;;;;;;;;;;5050975;28;20063;-69
2022/09/20 09:46:44;;;;;;;5.45;0.95;;;;;;;;;;5052624;28;20405;-69
2022/09/20 09:49:14;;;;;;;3.80;0.80;;;;;;;;;;5051134;28;20047;-68
2022/09/20 09:51:43;;;;;;;5.40;0.80;;;;;;;;;;5051840;28;20041;-68
2022/09/20 09:54:17;;;;;;;4.03;0.80;;;;;;;;;;5050724;28;20041;-69
2022/09/20 09:56:58;;;;;;;5.35;0.90;;;;;;;;;;5052306;28;20037;-68
2022/09/20 09:59:43;;;;;;;3.88;0.88;;;;;;;;;;5052003;28;20118;-69
2022/09/20 10:02:29;;;;;;;3.30;0.85;;;;;;;;;;5050299;28;20120;-68
2022/09/20 10:05:00;;;;;;;4.95;0.80;;;;;;;;;;5050787;28;20102;-68
2022/09/20 10:07:34;;;;;;;3.88;0.75;;;;;;;;;;5050926;28;20624;-69
2022/09/20 10:10:00;;;;;;;4.93;0.90;;;;;;;;;;5034272;28;20041;-68
2022/09/20 10:12:29;;;;;;;5.75;0.80;;;;;;;;;;5051134;28;20106;-68
2022/09/20 10:14:58;;;;;;;5.95;0.68;;;;;;;;;;5051964;28;20037;-68
2022/09/20 10:17:33;;;;;;;6.28;0.77;;;;;;;;;;5050322;28;20072;-68
2022/09/20 10:20:05;;;;;;;3.77;0.60;;;;;;;;;;5051880;28;20489;-68
2022/09/20 10:22:54;;;;;;;4.53;1.25;;;;;;;;;;5050015;28;20049;-68
2022/09/20 10:25:39;;;;;;;4.63;0.90;;;;;;;;;;5051805;28;20449;-69
2022/09/20 10:28:24;;;;;;;4.82;0.70;;;;;;;;;;5048769;28;20398;-69
2022/09/20 10:31:07;;;;;;;5.07;0.70;;;;;;;;;;5051813;28;20033;-68
2022/09/20 10:33:45;;;;;;;5.55;0.80;;;;;;;;;;5050199;28;20490;-69
2022/09/20 10:36:14;;;;;;;3.17;0.88;;;;;;;;;;5050428;28;20064;-69
2022/09/20 10:39:03;;;;;;;4.55;0.85;;;;;;;;;;5050225;28;20041;-69
2022/09/20 10:44:27;;;;;;;6.55;0.80;;;;;;;;;;5015312;28;20100;-69
2022/09/20 10:47:05;;;;;;;5.00;0.90;;;;;;;;;;5050695;28;20116;-70
2022/09/20 10:49:36;;;;;;;4.93;0.60;;;;;;;;;;5050080;28;20045;-71
2022/09/20 10:52:06;;;;;;;4.93;0.70;;;;;;;;;;5033470;28;20033;-72
2022/09/20 10:54:52;;;;;;;2.88;0.80;;;;;;;;;;5051181;28;20098;-72
2022/09/20 10:57:18;;;;;;;4.57;0.85;;;;;;;;;;5030147;28;20049;-72
2022/09/20 10:59:47;;;;;;;4.65;1.00;;;;;;;;;;5050139;28;20441;-72
2022/09/20 11:02:28;;;;;;;3.30;0.80;;;;;;;;;;5033372;28;20505;-72
2022/09/20 11:04:54;;;;;;;4.18;0.85;;;;;;;;;;5050242;28;20048;-72
2022/09/20 11:07:20;;;;;;;3.25;0.63;;;;;;;;;;5050204;28;20052;-72
2022/09/20 11:10:01;;;;;;;3.88;0.75;;;;;;;;;;5050032;28;20102;-73
2022/09/20 11:12:34;;;;;;;2.65;0.85;;;;;;;;;;5049596;28;20157;-72
2022/09/20 11:15:29;;;;;;;4.70;0.70;;;;;;;;;;5050030;28;20057;-71
2022/09/20 11:17:55;;;;;;;3.00;0.82;;;;;;;;;;5015426;28;20057;-70
2022/09/20 11:20:23;;;;;;;7.68;1.40;;;;;;;;;;5051338;28;20132;-71
2022/09/20 11:22:58;;;;;;;3.47;0.70;;;;;;;;;;5049247;28;20037;-71
2022/09/20 11:25:39;;;;;;;3.72;0.77;;;;;;;;;;5052601;28;20405;-70
2022/09/20 11:28:12;;;;;;;3.28;0.70;;;;;;;;;;5066020;28;20452;-72
2022/09/20 11:30:50;;;;;;;5.03;0.90;;;;;;;;;;5054493;28;20509;-70
2022/09/20 11:33:26;;;;;;;5.00;0.90;;;;;;;;;;5053221;28;20048;-70
2022/09/20 11:35:55;;;;;;;3.97;0.70;;;;;;;;;;5053604;28;20041;-71
2022/09/20 11:38:28;;;;;;;3.92;0.90;;;;;;;;;;5053367;28;20091;-71
2022/09/20 11:40:57;;;;;;;5.18;0.73;;;;;;;;;;5053532;28;20045;-71
2022/09/20 11:43:27;;;;;;;3.78;0.93;;;;;;;;;;5054655;28;20029;-71
2022/09/20 11:45:55;;;;;;;3.95;0.75;;;;;;;;;;5054353;28;20040;-72
2022/09/20 11:48:34;;;;;;;2.20;0.65;;;;;;;;;;5053431;28;20095;-70
2022/09/20 11:51:09;;;;;;;2.95;0.60;;;;;;;;;;5054395;28;20504;-72
2022/09/20 11:53:44;;;;;;;6.35;0.70;;;;;;;;;;5053729;28;20034;-72
2022/09/20 11:56:13;;;;;;;5.97;0.90;;;;;;;;;;5054786;28;20069;-72
2022/09/20 11:58:48;;;;;;;4.05;0.80;;;;;;;;;;5069808;28;20518;-71
2022/09/20 12:01:15;;;;;;;4.70;1.08;;;;;;;;;;5053167;28;20049;-71
2022/09/20 12:03:43;;;;;;;4.00;0.68;;;;;;;;;;5066883;28;20063;-72
2022/09/20 12:06:28;;;;;;;4.53;0.80;;;;;;;;;;5040601;28;20041;-72
2022/09/20 12:08:57;;;;;;;5.68;0.60;;;;;;;;;;5052688;28;20053;-71
2022/09/20 12:11:37;;;;;;;3.47;0.77;;;;;;;;;;5036610;28;20079;-71
2022/09/20 12:14:22;;;;;;;3.83;0.65;;;;;;;;;;5052239;28;20098;-71
2022/09/20 12:16:49;;;;;;;5.20;0.80;;;;;;;;;;5053671;28;20033;-71
2022/09/20 12:19:20;;;;;;;6.72;0.90;;;;;;;;;;5053934;28;20040;-70
2022/09/20 12:21:59;;;;;;;4.30;1.10;;;;;;;;;;5052203;28;20037;-71
2022/09/20 12:24:27;;;;;;;3.90;0.65;;;;;;;;;;5052121;28;20080;-72
2022/09/20 12:26:58;;;;;;;5.78;1.10;;;;;;;;;;5053853;28;20060;-71
2022/09/20 12:29:24;;;;;;;5.50;0.85;;;;;;;;;;5050950;28;20111;-71
2022/09/20 12:31:54;;;;;;;4.28;0.70;;;;;;;;;;5052025;28;20577;-72
2022/09/20 12:34:20;;;;;;;3.80;0.80;;;;;;;;;;5053247;28;20112;-71
2022/09/20 12:36:53;;;;;;;2.90;0.70;;;;;;;;;;5034903;28;20037;-72
2022/09/20 12:39:23;;;;;;;3.45;0.60;;;;;;;;;;5052408;28;20138;-71
2022/09/20 12:41:50;;;;;;;4.07;0.80;;;;;;;;;;5035482;28;20037;-72
2022/09/20 12:44:25;;;;;;;4.32;1.00;;;;;;;;;;5051944;28;20045;-71
2022/09/20 12:46:51;;;;;;;;;;;;;;;;;;5052285;28;20395;-70
2022/09/20 12:52:49;;;;;;;;;;;;;;;;;;5054112;28;19923;-71
2022/09/20 12:54:49;;;;;;;5.20;0.90;;;;;;;;;;5053932;28;20052;-71
2022/09/20 12:57:27;;;;;;;4.50;0.90;;;;;;;;;;5052229;28;20461;-70
2022/09/20 12:59:58;;;;;;;4.10;0.82;;;;;;;;;;5051671;28;20041;-71
2022/09/20 13:02:46;;;;;;;5.22;0.70;;;;;;;;;;5053106;28;20478;-70
2022/09/20 13:05:32;;;;;;;4.95;0.77;;;;;;;;;;5053379;28;20109;-70
2022/09/20 13:08:01;;;;;;;7.95;0.90;;;;;;;;;;5051939;28;20127;-75
2022/09/20 13:10:34;;;;;;;4.00;0.80;;;;;;;;;;5061547;28;20516;-75
2022/09/20 13:13:05;;;;;;;4.25;0.82;;;;;;;;;;5052978;28;20112;-76
2022/09/20 13:15:32;;;;;;;4.53;0.77;;;;;;;;;;5052326;28;20077;-75
2022/09/20 13:18:00;;;;;;;6.75;0.98;;;;;;;;;;5052260;28;20056;-74
2022/09/20 13:20:30;;;;;;;3.95;0.90;;;;;;;;;;5052750;28;20047;-75
2022/09/20 13:22:56;;;;;;;4.00;0.80;;;;;;;;;;5052439;28;20041;-75
2022/09/20 13:25:23;;;;;;;3.45;0.70;;;;;;;;;;5036015;28;20102;-75
2022/09/20 13:28:09;;;;;;;4.60;0.60;;;;;;;;;;5051331;28;20077;-75
2022/09/20 13:30:36;;;;;;;3.13;1.00;;;;;;;;;;5052891;28;20045;-75
2022/09/20 13:33:16;;;;;;;4.35;0.60;;;;;;;;;;5053004;28;20040;-75
2022/09/20 13:35:43;;;;;;;5.15;0.85;;;;;;;;;;5051855;28;20048;-75
2022/09/20 13:38:09;;;;;;;4.65;0.77;;;;;;;;;;5052587;28;20469;-76
2022/09/20 13:40:37;;;;;;;6.28;0.85;;;;;;;;;;5052347;28;20051;-75
2022/09/20 13:43:15;;;;;;;6.43;1.08;;;;;;;;;;5051560;28;20045;-75
2022/09/20 13:45:42;;;;;;;2.88;0.60;;;;;;;;;;5051711;28;20068;-75
2022/09/20 13:48:08;;;;;;;4.63;0.73;;;;;;;;;;5050530;28;20049;-75
2022/09/20 13:50:36;;;;;;;6.72;1.00;;;;;;;;;;5051955;28;20087;-76
2022/09/20 13:53:14;;;;;;;3.97;0.77;;;;;;;;;;5051432;28;20051;-75
2022/09/20 13:55:41;;;;;;;5.47;0.70;;;;;;;;;;5022653;28;20041;-74
2022/09/20 13:58:07;;;;;;;3.90;0.65;;;;;;;;;;5051167;28;20056;-75
2022/09/20 14:00:35;;;;;;;5.28;0.80;;;;;;;;;;5051428;28;20112;-75
2022/09/20 14:03:02;;;;;;;5.72;0.70;;;;;;;;;;5034306;28;20057;-75
2022/09/20 14:05:29;;;;;;;9.45;0.90;;;;;;;;;;5051624;28;20056;-74
2022/09/20 14:07:56;;;;;;;5.68;0.82;;;;;;;;;;5052946;28;20040;-74
2022/09/20 14:10:36;;;;;;;3.95;0.85;;;;;;;;;;5052965;28;20398;-75
2022/09/20 14:13:06;;;;;;;5.30;0.88;;;;;;;;;;5051217;28;20497;-74
2022/09/20 14:15:36;;;;;;;6.75;0.70;;;;;;;;;;5018479;28;20494;-75
2022/09/20 14:18:03;;;;;;;6.00;0.75;;;;;;;;;;5050880;28;20041;-77
2022/09/20 14:20:30;;;;;;;4.75;0.80;;;;;;;;;;5051174;28;20049;-75
2022/09/20 14:22:56;;;;;;;3.78;0.60;;;;;;;;;;5050909;28;20449;-75
2022/09/20 14:25:24;;;;;;;2.85;0.75;;;;;;;;;;5050582;28;20048;-75
2022/09/20 14:28:25;;;;;;;4.15;0.68;;;;;;;;;;5049662;28;20041;-75
2022/09/20 14:30:51;;;;;;;5.95;0.80;;;;;;;;;;5030198;28;20073;-75
2022/09/20 14:33:20;;;;;;;4.72;0.80;;;;;;;;;;5047633;28;20060;-75
2022/09/20 14:35:50;;;;;;;4.40;0.70;;;;;;;;;;5050580;28;20072;-75
2022/09/20 14:38:18;;;;;;;7.22;0.95;;;;;;;;;;5050666;28;20041;-76
2022/09/20 14:40:45;;;;;;;5.72;0.70;;;;;;;;;;5051327;28;20381;-76
2022/09/20 14:43:24;;;;;;;4.25;0.70;;;;;;;;;;5050960;28;20075;-76
2022/09/20 14:45:57;;;;;;;2.95;0.57;;;;;;;;;;5051886;28;20052;-75
2022/09/20 14:48:23;;;;;;;3.80;0.85;;;;;;;;;;5051832;28;20049;-76
2022/09/20 14:51:27;;;;;;;3.58;0.70;;;;;;;;;;5052043;28;20090;-74
2022/09/20 14:54:05;;;;;;;4.30;0.60;;;;;;;;;;5010009;28;20418;-76
2022/09/20 14:56:33;;;;;;;2.28;0.63;;;;;;;;;;5024384;28;20218;-75
2022/09/20 14:59:04;;;;;;;4.63;0.88;;;;;;;;;;5038393;28;20106;-75
2022/09/20 15:01:30;;;;;;;5.72;0.80;;;;;;;;;;5055729;28;20040;-76
2022/09/20 15:03:57;;;;;;;5.03;0.77;;;;;;;;;;5037637;28;20510;-74
2022/09/20 15:06:23;;;;;;;5.20;0.85;;;;;;;;;;5055940;28;20045;-75
2022/09/20 15:08:50;;;;;;;5.10;0.77;;;;;;;;;;5054548;28;20076;-75
2022/09/20 15:11:19;;;;;;;4.85;0.85;;;;;;;;;;5055499;28;20490;-75
2022/09/20 15:13:45;;;;;;;7.90;0.82;;;;;;;;;;5055226;28;20045;-76
2022/09/20 15:16:13;;;;;;;5.40;0.70;;;;;;;;;;5054961;28;20041;-75
2022/09/20 15:18:40;;;;;;;4.57;0.90;;;;;;;;;;5054514;28;20056;-76
2022/09/20 15:21:07;;;;;;;4.32;0.63;;;;;;;;;;5054493;28;20036;-76
2022/09/20 15:23:34;;;;;;;6.15;0.95;;;;;;;;;;5054989;28;20053;-75
2022/09/20 15:26:00;;;;;;;6.13;0.88;;;;;;;;;;5053917;28;20554;-76
2022/09/20 15:28:26;;;;;;;5.53;0.68;;;;;;;;;;5054545;28;20045;-75